Time,TemperatureF,DewpointF,PressureIn,WindDirection,WindDirectionDegrees,WindSpeedMPH,WindSpeedGustMPH,Humidity,HourlyPrecipIn,Conditions,Clouds,dailyrainin,SoftwareType,DateUTC
2013-04-24 00:10:00,55.1,50.0,30.12,ESE,108,0.0,0.0,84,0.00,,,0.00,weatherlink.com 1.10,2013-04-24 04:10:00,
2013-04-24 00:25:00,54.6,50.0,30.11,ESE,108,0.0,0.0,85,0.00,,,0.00,weatherlink.com 1.10,2013-04-24 04:25:00,
2013-04-24 00:40:00,54.1,50.0,30.11,ESE,107,0.0,0.0,86,0.00,,,0.00,weatherlink.com 1.10,2013-04-24 04:40:00,
2013-04-24 00:55:00,53.7,50.0,30.11,ESE,108,0.0,0.0,87,0.00,,,0.00,weatherlink.com 1.10,2013-04-24 04:55:00,
2013-04-24 01:10:00,53.3,50.0,30.11,ESE,108,0.0,0.0,88,0.00,,,0.00,weatherlink.com 1.10,2013-04-24 05:10:00,
2013-04-24 01:25:00,52.9,50.0,30.11,ESE,107,0.0,0.0,89,0.00,,,0.00,weatherlink.com 1.10,2013-04-24 05:25:00,
2013-04-24 01:40:00,52.6,50.0,30.12,ESE,107,0.0,0.0,89,0.00,,,0.00,weatherlink.com 1.10,2013-04-24 05:40:00,
2013-04-24 01:55:00,52.2,49.0,30.12,ESE,107,0.0,0.0,90,0.00,,,0.00,weatherlink.com 1.10,2013-04-24 05:55:00,
2013-04-24 02:10:00,52.2,50.0,30.13,ESE,107,0.0,0.0,91,0.00,,,0.00,weatherlink.com 1.10,2013-04-24 06:10:00,
2013-04-24 02:25:00,53.2,51.0,30.12,ESE,107,0.0,0.0,91,0.00,,,0.00,weatherlink.com 1.10,2013-04-24 06:25:00,
2013-04-24 02:40:00,54.2,52.0,30.11,ESE,108,0.0,0.0,91,0.00,,,0.00,weatherlink.com 1.10,2013-04-24 06:40:00,
2013-04-24 02:55:00,54.8,52.0,30.11,ESE,108,0.0,0.0,89,0.00,,,0.00,weatherlink.com 1.10,2013-04-24 06:55:00,
2013-04-24 03:10:00,55.3,52.0,30.11,ESE,108,0.0,0.0,88,0.00,,,0.00,weatherlink.com 1.10,2013-04-24 07:10:00,
2013-04-24 03:25:00,55.9,52.0,30.10,ESE,107,0.0,0.0,87,0.00,,,0.00,weatherlink.com 1.10,2013-04-24 07:25:00,
2013-04-24 03:40:00,56.2,52.0,30.10,ESE,108,0.0,0.0,87,0.00,,,0.00,weatherlink.com 1.10,2013-04-24 07:40:00,
2013-04-24 03:55:00,56.4,53.0,30.10,ESE,108,0.0,0.0,88,0.00,,,0.00,weatherlink.com 1.10,2013-04-24 07:55:00,
2013-04-24 04:10:00,56.6,53.0,30.09,ESE,107,0.0,0.0,88,0.00,,,0.00,weatherlink.com 1.10,2013-04-24 08:10:00,
2013-04-24 04:25:00,56.7,53.0,30.10,ESE,108,0.0,0.0,88,0.00,,,0.00,weatherlink.com 1.10,2013-04-24 08:25:00,
2013-04-24 04:40:00,56.8,53.0,30.09,ESE,107,0.0,0.0,86,0.00,,,0.00,weatherlink.com 1.10,2013-04-24 08:40:00,
2013-04-24 04:55:00,56.8,53.0,30.09,ESE,107,0.0,0.0,86,0.00,,,0.00,weatherlink.com 1.10,2013-04-24 08:55:00,
2013-04-24 05:10:00,56.8,53.0,30.10,ESE,107,0.0,0.0,86,0.00,,,0.00,weatherlink.com 1.10,2013-04-24 09:10:00,
2013-04-24 05:25:00,56.7,53.0,30.10,ESE,107,0.0,0.0,87,0.00,,,0.00,weatherlink.com 1.10,2013-04-24 09:25:00,
2013-04-24 05:40:00,56.6,53.0,30.10,ESE,108,0.0,0.0,88,0.00,,,0.00,weatherlink.com 1.10,2013-04-24 09:40:00,
2013-04-24 05:55:00,56.3,53.0,30.10,ESE,107,0.0,0.0,88,0.00,,,0.00,weatherlink.com 1.10,2013-04-24 09:55:00,
2013-04-24 06:10:00,55.7,53.0,30.10,ESE,108,0.0,0.0,89,0.00,,,0.00,weatherlink.com 1.10,2013-04-24 10:10:00,
2013-04-24 06:25:00,55.8,53.0,30.10,ESE,107,0.0,0.0,90,0.00,,,0.00,weatherlink.com 1.10,2013-04-24 10:25:00,
2013-04-24 06:40:00,56.5,53.0,30.11,WSW,239,0.0,0.0,88,0.00,,,0.00,weatherlink.com 1.10,2013-04-24 10:40:00,
2013-04-24 06:55:00,57.2,53.0,30.11,WSW,241,0.0,1.0,86,0.00,,,0.00,weatherlink.com 1.10,2013-04-24 10:55:00,
2013-04-24 07:10:00,57.5,53.0,30.11,WSW,240,0.0,0.0,85,0.00,,,0.00,weatherlink.com 1.10,2013-04-24 11:10:00,
2013-04-24 07:25:00,57.8,53.0,30.11,SW,221,0.0,1.0,84,0.00,,,0.00,weatherlink.com 1.10,2013-04-24 11:25:00,
2013-04-24 07:40:00,58.0,53.0,30.10,SW,225,0.0,0.0,83,0.00,,,0.00,weatherlink.com 1.10,2013-04-24 11:40:00,
2013-04-24 07:55:00,57.4,53.0,30.10,SW,225,0.0,1.0,84,0.00,,,0.00,weatherlink.com 1.10,2013-04-24 11:55:00,
2013-04-24 08:10:00,57.6,53.0,30.10,SW,233,0.0,1.0,84,0.00,,,0.00,weatherlink.com 1.10,2013-04-24 12:10:00,
2013-04-24 08:25:00,58.6,53.0,30.09,SW,236,0.0,4.0,82,0.00,,,0.00,weatherlink.com 1.10,2013-04-24 12:25:00,
2013-04-24 08:41:00,59.8,53.0,30.09,SW,232,0.0,8.0,79,0.00,,,0.00,weatherlink.com 1.10,2013-04-24 12:41:00,
2013-04-24 08:56:00,60.6,54.0,30.09,SW,229,0.0,6.0,79,0.00,,,0.00,weatherlink.com 1.10,2013-04-24 12:56:00,
2013-04-24 09:11:00,61.6,55.0,30.09,SW,225,0.0,7.0,78,0.00,,,0.00,weatherlink.com 1.10,2013-04-24 13:11:00,
2013-04-24 09:26:00,62.5,56.0,30.09,SSW,208,3.0,8.0,78,0.00,,,0.00,weatherlink.com 1.10,2013-04-24 13:26:00,
2013-04-24 09:41:00,63.6,56.0,30.09,SSW,207,0.0,4.0,77,0.00,,,0.00,weatherlink.com 1.10,2013-04-24 13:41:00,
2013-04-24 09:56:00,65.0,57.0,30.09,SSW,201,5.0,10.0,75,0.00,,,0.00,weatherlink.com 1.10,2013-04-24 13:56:00,
2013-04-24 10:11:00,66.1,58.0,30.10,SSW,211,3.0,8.0,74,0.00,,,0.00,weatherlink.com 1.10,2013-04-24 14:11:00,
2013-04-24 10:26:00,66.8,58.0,30.11,South,173,4.0,12.0,73,0.00,,,0.00,weatherlink.com 1.10,2013-04-24 14:26:00,
2013-04-24 10:41:00,67.3,58.0,30.12,SW,217,4.0,11.0,73,0.00,,,0.00,weatherlink.com 1.10,2013-04-24 14:41:00,
2013-04-24 10:56:00,68.0,59.0,30.13,South,186,4.0,12.0,72,0.00,,,0.00,weatherlink.com 1.10,2013-04-24 14:56:00,
2013-04-24 11:11:00,68.5,59.0,30.13,WNW,291,1.0,10.0,71,0.00,,,0.00,weatherlink.com 1.10,2013-04-24 15:11:00,
2013-04-24 11:26:00,69.4,59.0,30.12,ESE,114,5.0,13.0,69,0.00,,,0.00,weatherlink.com 1.10,2013-04-24 15:26:00,
2013-04-24 11:41:00,70.4,59.0,30.12,WSW,250,1.0,12.0,67,0.00,,,0.00,weatherlink.com 1.10,2013-04-24 15:41:00,
2013-04-24 11:56:00,70.8,58.0,30.11,SW,231,4.0,12.0,65,0.00,,,0.00,weatherlink.com 1.10,2013-04-24 15:56:00,
2013-04-24 12:11:00,71.8,59.0,30.11,SW,219,5.0,13.0,64,0.00,,,0.00,weatherlink.com 1.10,2013-04-24 16:11:00,
2013-04-24 12:26:00,72.5,59.0,30.08,SSW,193,8.0,10.0,63,0.00,,,0.00,weatherlink.com 1.10,2013-04-24 16:26:00,
2013-04-24 12:41:00,73.8,58.0,30.08,ESE,105,1.0,13.0,59,0.00,,,0.00,weatherlink.com 1.10,2013-04-24 16:41:00,
2013-04-24 12:56:00,73.8,57.0,30.08,WSW,240,3.0,14.0,57,0.00,,,0.00,weatherlink.com 1.10,2013-04-24 16:56:00,
2013-04-24 13:11:00,74.0,57.0,30.09,South,180,7.0,16.0,55,0.00,,,0.00,weatherlink.com 1.10,2013-04-24 17:11:00,
2013-04-24 13:26:00,74.1,58.0,30.09,North,357,1.0,12.0,57,0.00,,,0.00,weatherlink.com 1.10,2013-04-24 17:26:00,
2013-04-24 13:41:00,74.2,57.0,30.09,WSW,238,2.0,13.0,56,0.00,,,0.00,weatherlink.com 1.10,2013-04-24 17:41:00,
2013-04-24 13:56:00,73.7,58.0,30.09,NE,56,0.0,11.0,58,0.00,,,0.00,weatherlink.com 1.10,2013-04-24 17:56:00,
2013-04-24 14:11:00,72.8,57.0,30.10,NE,53,0.0,11.0,59,0.00,,,0.00,weatherlink.com 1.10,2013-04-24 18:11:00,
2013-04-24 14:26:00,72.9,58.0,30.09,South,181,0.0,10.0,59,0.00,,,0.00,weatherlink.com 1.10,2013-04-24 18:26:00,
2013-04-24 14:41:00,71.8,58.0,30.09,SW,236,1.0,10.0,62,0.00,,,0.00,weatherlink.com 1.10,2013-04-24 18:41:00,
2013-04-24 14:56:00,71.4,58.0,30.09,NNE,12,0.0,12.0,63,0.00,,,0.00,weatherlink.com 1.10,2013-04-24 18:56:00,
2013-04-24 15:11:00,71.2,58.0,30.09,SW,224,2.0,5.0,64,0.00,,,0.00,weatherlink.com 1.10,2013-04-24 19:11:00,
2013-04-24 15:27:00,70.7,58.0,30.09,SE,145,1.0,6.0,65,0.00,,,0.00,weatherlink.com 1.10,2013-04-24 19:27:00,
2013-04-24 15:42:00,70.4,58.0,30.08,WSW,239,3.0,7.0,65,0.00,,,0.00,weatherlink.com 1.10,2013-04-24 19:42:00,
2013-04-24 15:57:00,70.1,58.0,30.08,SW,217,4.0,12.0,66,0.00,,,0.00,weatherlink.com 1.10,2013-04-24 19:57:00,
2013-04-24 16:12:00,69.8,58.0,30.08,NE,39,0.0,6.0,67,0.00,,,0.00,weatherlink.com 1.10,2013-04-24 20:12:00,
2013-04-24 16:27:00,68.0,61.0,30.09,NE,46,0.0,5.0,77,0.00,,,0.00,weatherlink.com 1.10,2013-04-24 20:27:00,
2013-04-24 16:42:00,65.6,61.0,30.09,NE,53,0.0,1.0,85,0.01,,,0.01,weatherlink.com 1.10,2013-04-24 20:42:00,
2013-04-24 16:57:00,64.5,61.0,30.09,West,274,0.0,1.0,89,0.03,,,0.03,weatherlink.com 1.10,2013-04-24 20:57:00,
2013-04-24 17:12:00,63.8,61.0,30.08,West,274,0.0,0.0,91,0.06,,,0.06,weatherlink.com 1.10,2013-04-24 21:12:00,
2013-04-24 17:27:00,63.5,61.0,30.08,West,274,0.0,0.0,91,0.07,,,0.07,weatherlink.com 1.10,2013-04-24 21:27:00,
2013-04-24 17:42:00,63.5,61.0,30.08,SW,217,0.0,1.0,92,0.08,,,0.09,weatherlink.com 1.10,2013-04-24 21:42:00,
2013-04-24 17:57:00,63.4,61.0,30.08,South,190,0.0,2.0,92,0.05,,,0.09,weatherlink.com 1.10,2013-04-24 21:57:00,
2013-04-24 18:12:00,63.6,61.0,30.07,SW,226,0.0,0.0,92,0.03,,,0.09,weatherlink.com 1.10,2013-04-24 22:12:00,
2013-04-24 18:27:00,64.0,62.0,30.07,SSW,198,0.0,3.0,92,0.02,,,0.09,weatherlink.com 1.10,2013-04-24 22:27:00,
2013-04-24 18:42:00,64.6,62.0,30.07,SW,214,2.0,5.0,92,0.00,,,0.09,weatherlink.com 1.10,2013-04-24 22:42:00,
2013-04-24 18:57:00,64.7,62.0,30.07,SSW,207,0.0,4.0,91,0.00,,,0.09,weatherlink.com 1.10,2013-04-24 22:57:00,
2013-04-24 19:12:00,64.5,62.0,30.08,SW,221,0.0,2.0,91,0.00,,,0.09,weatherlink.com 1.10,2013-04-24 23:12:00,
2013-04-24 19:27:00,64.4,62.0,30.08,SW,224,0.0,1.0,91,0.00,,,0.09,weatherlink.com 1.10,2013-04-24 23:27:00,
2013-04-24 19:42:00,64.1,62.0,30.07,SW,228,0.0,0.0,92,0.00,,,0.09,weatherlink.com 1.10,2013-04-24 23:42:00,
2013-04-24 19:57:00,64.0,62.0,30.07,SE,143,0.0,1.0,92,0.00,,,0.09,weatherlink.com 1.10,2013-04-24 23:57:00,
2013-04-24 20:12:00,63.7,61.0,30.08,SE,143,0.0,0.0,92,0.00,,,0.09,weatherlink.com 1.10,2013-04-25 00:12:00,
2013-04-24 20:27:00,63.0,61.0,30.08,SE,143,0.0,0.0,92,0.00,,,0.09,weatherlink.com 1.10,2013-04-25 00:27:00,
2013-04-24 20:42:00,62.6,61.0,30.08,SE,143,0.0,0.0,93,0.00,,,0.09,weatherlink.com 1.10,2013-04-25 00:42:00,
2013-04-24 20:57:00,62.6,61.0,30.09,SE,143,0.0,0.0,93,0.00,,,0.09,weatherlink.com 1.10,2013-04-25 00:57:00,
2013-04-24 21:12:00,62.9,61.0,30.09,SSW,206,0.0,1.0,93,0.00,,,0.09,weatherlink.com 1.10,2013-04-25 01:12:00,
2013-04-24 21:27:00,63.1,61.0,30.10,SW,222,0.0,1.0,93,0.00,,,0.09,weatherlink.com 1.10,2013-04-25 01:27:00,
2013-04-24 21:42:00,63.3,61.0,30.10,SSW,203,0.0,2.0,93,0.00,,,0.09,weatherlink.com 1.10,2013-04-25 01:42:00,
2013-04-24 21:57:00,63.5,62.0,30.11,North,4,1.0,7.0,93,0.00,,,0.09,weatherlink.com 1.10,2013-04-25 01:57:00,
2013-04-24 22:12:00,62.4,60.0,30.12,North,11,4.0,8.0,92,0.00,,,0.09,weatherlink.com 1.10,2013-04-25 02:12:00,
2013-04-24 22:27:00,59.6,57.0,30.14,North,4,2.0,6.0,91,0.00,,,0.09,weatherlink.com 1.10,2013-04-25 02:27:00,
2013-04-24 22:42:00,58.3,56.0,30.14,West,281,0.0,8.0,91,0.00,,,0.09,weatherlink.com 1.10,2013-04-25 02:42:00,
2013-04-24 22:57:00,57.4,55.0,30.14,NNE,25,1.0,6.0,91,0.00,,,0.09,weatherlink.com 1.10,2013-04-25 02:57:00,
2013-04-24 23:27:00,56.5,54.0,30.14,WNW,293,2.0,7.0,92,0.00,,,0.09,weatherlink.com 1.10,2013-04-25 03:27:00,
2013-04-24 23:42:00,55.5,53.0,30.15,NNW,331,0.0,4.0,91,0.00,,,0.09,weatherlink.com 1.10,2013-04-25 03:42:00,
2013-04-24 23:57:00,55.1,53.0,30.16,NNW,329,0.0,3.0,91,0.00,,,0.09,weatherlink.com 1.10,2013-04-25 03:57:00,